createdAt,value
2023-02-15T00:00:18.409Z,63.72
2023-02-15T00:01:21.245Z,70.38
2023-02-15T00:02:23.165Z,60.55
2023-02-15T00:03:26.144Z,58.45
2023-02-15T00:04:47.055Z,65.18
2023-02-15T00:05:49.014Z,65.80
2023-02-15T00:06:52.006Z,62.65
2023-02-15T00:07:53.922Z,47.33
2023-02-15T00:08:57.189Z,50.50
2023-02-15T00:10:00.389Z,46.28
2023-02-15T00:11:07.765Z,43.50
2023-02-15T00:12:10.099Z,48.28
2023-02-15T00:13:13.245Z,46.53
2023-02-15T00:14:17.113Z,48.42
2023-02-15T00:15:19.881Z,47.67
2023-02-15T00:16:21.695Z,45.47
2023-02-15T00:17:24.602Z,50.53
2023-02-15T00:18:26.483Z,47.05
2023-02-15T00:19:29.284Z,44.88
2023-02-15T00:20:31.213Z,49.45
2023-02-15T00:21:35.055Z,49.40
2023-02-15T00:22:37.784Z,46.60
2023-02-15T00:23:39.805Z,48.70
2023-02-15T00:24:42.793Z,47.55
2023-02-15T00:25:46.002Z,44.33
2023-02-15T00:27:07.381Z,50.60
2023-02-15T00:28:09.244Z,51.85
2023-02-15T00:29:13.325Z,58.97
2023-02-15T00:30:16.274Z,59.10
2023-02-15T00:31:18.393Z,54.63
2023-02-15T00:32:21.230Z,57.50
2023-02-15T00:33:25.963Z,53.50
2023-02-15T00:34:30.149Z,49.30
2023-02-15T00:35:32.402Z,49.75
2023-02-15T00:36:35.511Z,46.45
2023-02-15T00:37:37.357Z,41.47
2023-02-15T00:38:58.829Z,42.63
2023-02-15T00:40:20.172Z,53.03
2023-02-15T00:41:44.392Z,47.88
2023-02-15T00:42:47.927Z,50.83
2023-02-15T00:43:50.508Z,55.75
2023-02-15T00:44:53.547Z,64.55
2023-02-15T00:45:56.479Z,53.13
2023-02-15T00:46:59.285Z,50.92
2023-02-15T00:48:01.140Z,53.25
2023-02-15T00:49:04.228Z,57.90
2023-02-15T00:50:07.445Z,53.90
2023-02-15T00:51:10.303Z,53.33
2023-02-15T00:52:13.172Z,55.00
2023-02-15T00:53:14.935Z,56.10
2023-02-15T00:54:18.181Z,53.45
2023-02-15T00:55:19.964Z,51.80
2023-02-15T00:56:23.440Z,51.38
2023-02-15T00:57:27.270Z,51.35
2023-02-15T00:58:30.141Z,53.95
2023-02-15T00:59:32.942Z,55.08
2023-02-15T01:00:34.868Z,57.75
2023-02-15T01:01:37.691Z,51.20
2023-02-15T01:02:39.549Z,68.32
2023-02-15T01:03:42.479Z,58.67
2023-02-15T01:04:44.953Z,61.42
2023-02-15T01:05:49.441Z,59.53
2023-02-15T01:06:51.299Z,62.80
2023-02-15T01:07:54.701Z,58.00
2023-02-15T01:08:56.528Z,58.80
2023-02-15T01:09:59.348Z,56.40
2023-02-15T01:11:05.168Z,60.10
2023-02-15T01:12:07.947Z,58.97
2023-02-15T01:13:11.403Z,49.60
2023-02-15T01:14:15.504Z,50.97
2023-02-15T01:15:17.501Z,52.42
2023-02-15T01:16:20.419Z,49.63
2023-02-15T01:17:22.296Z,56.03
2023-02-15T01:18:25.116Z,54.55
2023-02-15T01:19:27.462Z,52.00
2023-02-15T01:20:30.911Z,48.72
2023-02-15T01:21:35.312Z,52.00
2023-02-15T01:22:39.599Z,53.47
2023-02-15T01:23:42.041Z,53.03
2023-02-15T01:24:44.973Z,50.78
2023-02-15T01:25:47.184Z,49.10
2023-02-15T01:26:49.934Z,51.85
2023-02-15T01:27:51.772Z,52.13
2023-02-15T01:28:55.940Z,48.28
2023-02-15T01:29:58.718Z,52.42
2023-02-15T01:31:01.565Z,50.08
2023-02-15T01:32:03.930Z,55.08
2023-02-15T01:33:06.812Z,53.47
2023-02-15T01:34:08.731Z,53.38
2023-02-15T01:35:12.532Z,50.63
2023-02-15T01:36:14.464Z,55.65
2023-02-15T01:37:17.271Z,56.38
2023-02-15T01:38:19.459Z,57.00
2023-02-15T01:39:22.224Z,50.28
2023-02-15T01:40:43.196Z,52.65
2023-02-15T01:42:07.355Z,56.20
2023-02-15T01:43:12.910Z,51.75
2023-02-15T01:44:49.959Z,50.72
2023-02-15T01:45:51.843Z,51.67
2023-02-15T01:46:55.350Z,49.63
2023-02-15T01:48:00.062Z,47.38
2023-02-15T01:49:05.412Z,52.08
2023-02-15T01:50:11.506Z,47.03
2023-02-15T01:51:15.216Z,59.75
2023-02-15T01:52:18.766Z,62.33
2023-02-15T01:53:24.105Z,56.88
2023-02-15T01:54:28.989Z,58.42
2023-02-15T01:55:36.181Z,50.15
2023-02-15T01:56:39.981Z,52.70
2023-02-15T01:57:43.085Z,49.58
2023-02-15T01:58:45.419Z,51.95
2023-02-15T01:59:53.745Z,47.90
2023-02-15T02:01:00.272Z,47.22
2023-02-15T02:02:05.403Z,45.38
2023-02-15T02:03:07.277Z,43.67
2023-02-15T02:04:13.785Z,49.03
2023-02-15T02:05:16.076Z,47.58
2023-02-15T02:06:21.886Z,46.90
2023-02-15T02:07:25.444Z,47.30
2023-02-15T02:08:28.294Z,42.58
2023-02-15T02:09:30.590Z,46.72
2023-02-15T02:10:33.401Z,47.05
2023-02-15T02:11:36.335Z,49.20
2023-02-15T02:12:40.874Z,49.72
2023-02-15T02:13:45.576Z,39.78
2023-02-15T02:14:50.544Z,51.13
2023-02-15T02:15:57.697Z,45.95
2023-02-15T02:17:07.538Z,49.70
2023-02-15T02:18:19.819Z,43.50
2023-02-15T02:19:50.504Z,45.33
2023-02-15T02:21:02.828Z,44.60
2023-02-15T02:22:44.309Z,46.20
2023-02-15T02:23:56.139Z,37.22
2023-02-15T02:25:30.580Z,45.15
2023-02-15T02:27:05.356Z,41.03
2023-02-15T02:28:20.519Z,45.15
2023-02-15T02:29:34.737Z,41.28
2023-02-15T02:30:51.795Z,43.97
2023-02-15T02:32:11.777Z,42.20
2023-02-15T02:33:28.390Z,47.55
2023-02-15T02:34:31.748Z,40.80
2023-02-15T02:35:39.494Z,41.03
2023-02-15T02:36:47.542Z,39.47
2023-02-15T02:37:56.499Z,41.90
2023-02-15T02:39:08.984Z,38.42
2023-02-15T02:40:15.635Z,46.08
2023-02-15T02:41:27.294Z,42.10
2023-02-15T02:42:37.201Z,46.47
2023-02-15T02:43:43.357Z,43.53
2023-02-15T02:44:49.840Z,44.25
2023-02-15T02:45:54.543Z,38.60
2023-02-15T02:47:00.469Z,41.08
2023-02-15T02:48:08.834Z,32.42
2023-02-15T02:49:13.584Z,38.40
2023-02-15T02:50:17.767Z,36.47
2023-02-15T02:51:23.036Z,40.80
2023-02-15T02:52:39.922Z,38.40
2023-02-15T02:53:42.717Z,37.55
2023-02-15T02:54:44.540Z,34.70
2023-02-15T02:55:49.667Z,37.38
2023-02-15T02:56:52.193Z,37.75
2023-02-15T02:57:57.869Z,35.92
2023-02-15T02:59:03.626Z,37.97
2023-02-15T03:00:09.460Z,38.47
2023-02-15T03:01:14.559Z,36.95
2023-02-15T03:02:21.140Z,34.05
2023-02-15T03:03:27.428Z,35.70
2023-02-15T03:04:34.181Z,37.13
2023-02-15T03:05:39.756Z,34.25
2023-02-15T03:06:44.551Z,33.10
2023-02-15T03:07:50.094Z,28.58
2023-02-15T03:08:57.576Z,36.50
2023-02-15T03:10:02.086Z,34.22
2023-02-15T03:11:07.269Z,29.30
2023-02-15T03:12:10.539Z,35.22
2023-02-15T03:13:17.418Z,33.78
2023-02-15T03:14:19.963Z,35.58
2023-02-15T03:15:26.107Z,33.22
2023-02-15T03:16:29.648Z,39.28
2023-02-15T03:17:33.270Z,41.53
2023-02-15T03:18:38.060Z,36.08
2023-02-15T03:19:42.576Z,38.13
2023-02-15T03:20:45.135Z,43.95
2023-02-15T03:21:58.447Z,38.05
2023-02-15T03:23:02.813Z,35.80
2023-02-15T03:24:10.297Z,38.53
2023-02-15T03:25:14.691Z,35.90
2023-02-15T03:26:18.182Z,37.30
2023-02-15T03:27:24.851Z,39.87
2023-02-15T03:28:30.568Z,39.35
2023-02-15T03:29:35.410Z,38.38
2023-02-15T03:30:39.292Z,38.05
2023-02-15T03:31:44.189Z,39.30
2023-02-15T03:32:47.575Z,40.97
2023-02-15T03:33:55.943Z,40.60
2023-02-15T03:34:59.138Z,46.40
2023-02-15T03:36:04.539Z,45.15
2023-02-15T03:37:10.948Z,42.67
2023-02-15T03:38:16.506Z,50.55
2023-02-15T03:39:21.133Z,41.15
2023-02-15T03:40:43.703Z,44.08
2023-02-15T03:41:52.507Z,46.80
2023-02-15T03:42:59.055Z,43.33
2023-02-15T03:44:03.237Z,45.78
2023-02-15T03:45:08.688Z,39.13
2023-02-15T03:46:15.312Z,39.10
2023-02-15T03:47:20.036Z,40.92
2023-02-15T03:48:24.194Z,41.50
2023-02-15T03:49:30.698Z,37.90
2023-02-15T03:50:55.596Z,37.70
2023-02-15T03:51:59.777Z,37.08
2023-02-15T03:53:03.149Z,32.47
2023-02-15T03:54:08.934Z,33.55
2023-02-15T03:55:11.895Z,35.13
2023-02-15T03:56:13.731Z,38.25
2023-02-15T03:57:38.170Z,40.05
2023-02-15T03:58:58.465Z,34.95
2023-02-15T04:00:19.777Z,35.17
2023-02-15T04:01:59.032Z,35.38
2023-02-15T04:03:22.629Z,30.95
2023-02-15T04:04:27.464Z,29.92
2023-02-15T04:05:30.204Z,27.80
2023-02-15T04:06:33.331Z,31.67
2023-02-15T04:07:36.495Z,28.42
2023-02-15T04:08:59.095Z,30.67
2023-02-15T04:10:19.628Z,31.30
2023-02-15T04:11:21.465Z,30.70
2023-02-15T04:12:24.212Z,28.05
2023-02-15T04:13:32.970Z,26.50
2023-02-15T04:14:53.625Z,27.77
2023-02-15T04:16:04.857Z,31.40
2023-02-15T04:17:08.925Z,29.90
2023-02-15T04:18:11.872Z,25.65
2023-02-15T04:19:32.312Z,29.50
2023-02-15T04:20:52.788Z,24.50
2023-02-15T04:22:14.114Z,23.52
2023-02-15T04:23:34.229Z,23.23
2023-02-15T04:24:54.571Z,24.52
2023-02-15T04:25:57.722Z,23.25
2023-02-15T04:27:00.286Z,28.55
2023-02-15T04:28:03.014Z,24.38
2023-02-15T04:29:05.079Z,22.52
2023-02-15T04:30:09.211Z,23.65
2023-02-15T04:31:12.089Z,25.98
2023-02-15T04:32:14.082Z,29.10
2023-02-15T04:33:16.901Z,27.17
2023-02-15T04:34:18.957Z,27.33
2023-02-15T04:35:21.815Z,28.33
2023-02-15T04:36:23.635Z,28.80
2023-02-15T04:37:27.989Z,29.05
2023-02-15T04:38:29.837Z,28.65
2023-02-15T04:39:33.122Z,31.88
2023-02-15T04:40:35.005Z,26.13
2023-02-15T04:41:37.876Z,24.58
2023-02-15T04:42:40.126Z,27.42
2023-02-15T04:43:42.918Z,23.27
2023-02-15T04:44:44.790Z,28.83
2023-02-15T04:45:50.999Z,22.23
2023-02-15T04:46:53.062Z,30.08
2023-02-15T04:47:55.910Z,22.77
2023-02-15T04:48:57.741Z,23.08
2023-02-15T04:50:00.505Z,26.85
2023-02-15T04:51:06.367Z,25.90
2023-02-15T04:52:09.088Z,27.38
2023-02-15T04:53:13.490Z,23.33
2023-02-15T04:54:15.288Z,26.55
2023-02-15T04:55:18.161Z,27.65
2023-02-15T04:56:20.419Z,26.98
2023-02-15T04:57:23.624Z,24.80
2023-02-15T04:58:25.440Z,24.50
2023-02-15T04:59:28.195Z,24.95
2023-02-15T05:00:30.983Z,27.02
2023-02-15T05:01:32.782Z,24.10
2023-02-15T05:02:35.512Z,26.30
2023-02-15T05:03:37.792Z,22.85
2023-02-15T05:04:40.516Z,32.03
2023-02-15T05:05:43.311Z,29.48
2023-02-15T05:06:45.207Z,28.02
2023-02-15T05:07:48.021Z,27.55
2023-02-15T05:08:51.463Z,27.90
2023-02-15T05:09:54.229Z,25.58
2023-02-15T05:10:56.156Z,24.67
2023-02-15T05:11:59.049Z,25.73
2023-02-15T05:13:00.918Z,26.95
2023-02-15T05:14:03.664Z,27.48
2023-02-15T05:15:05.947Z,27.98
2023-02-15T05:16:08.797Z,28.15
2023-02-15T05:17:10.643Z,26.95
2023-02-15T05:18:13.377Z,23.42
2023-02-15T05:19:15.317Z,26.15
2023-02-15T05:20:19.512Z,27.52
2023-02-15T05:21:21.264Z,26.05
2023-02-15T05:22:24.126Z,26.50
2023-02-15T05:23:25.977Z,26.67
2023-02-15T05:24:47.507Z,34.20
2023-02-15T05:26:08.252Z,28.55
2023-02-15T05:27:30.017Z,32.83
2023-02-15T05:28:32.856Z,28.83
2023-02-15T05:29:34.702Z,35.53
2023-02-15T05:30:37.638Z,27.50
2023-02-15T05:31:39.800Z,27.33
2023-02-15T05:32:42.904Z,29.38
2023-02-15T05:33:45.322Z,31.95
2023-02-15T05:34:48.158Z,29.70
2023-02-15T05:35:49.946Z,28.77
2023-02-15T05:36:52.823Z,27.38
2023-02-15T05:37:54.946Z,26.08
2023-02-15T05:38:57.886Z,27.63
2023-02-15T05:40:01.029Z,28.38
2023-02-15T05:41:03.939Z,27.33
2023-02-15T05:42:05.802Z,28.02
2023-02-15T05:43:08.622Z,28.17
2023-02-15T05:44:10.678Z,26.40
2023-02-15T05:45:13.466Z,31.70
2023-02-15T05:46:15.428Z,27.85
2023-02-15T05:47:18.334Z,32.10
2023-02-15T05:48:22.335Z,29.98
2023-02-15T05:49:24.138Z,26.48
2023-02-15T05:50:27.093Z,24.55
2023-02-15T05:51:28.944Z,27.08
2023-02-15T05:52:31.753Z,27.50
2023-02-15T05:53:35.721Z,25.85
2023-02-15T05:54:38.469Z,27.35
2023-02-15T05:55:41.833Z,23.27
2023-02-15T05:56:44.854Z,27.25
2023-02-15T05:57:46.626Z,27.77
2023-02-15T05:58:49.448Z,28.42
2023-02-15T05:59:51.303Z,34.08
2023-02-15T06:00:54.105Z,32.20
2023-02-15T06:01:55.868Z,28.70
2023-02-15T06:02:59.040Z,33.28
2023-02-15T06:04:01.837Z,36.65
2023-02-15T06:05:03.852Z,30.58
2023-02-15T06:06:07.369Z,28.20
2023-02-15T06:07:09.144Z,30.42
2023-02-15T06:08:11.971Z,44.20
2023-02-15T06:09:14.964Z,29.10
2023-02-15T06:10:17.951Z,33.28
2023-02-15T06:11:21.378Z,29.23
2023-02-15T06:12:24.128Z,27.45
2023-02-15T06:13:26.480Z,30.63
2023-02-15T06:14:29.548Z,27.75
2023-02-15T06:15:31.401Z,27.60
2023-02-15T06:16:34.162Z,28.00
2023-02-15T06:17:35.969Z,28.33
2023-02-15T06:18:38.806Z,23.85
2023-02-15T06:19:40.647Z,25.92
2023-02-15T06:20:43.394Z,34.97
2023-02-15T06:21:45.217Z,39.10
2023-02-15T06:22:48.270Z,35.40
2023-02-15T06:23:51.049Z,40.15
2023-02-15T06:24:54.552Z,32.55
2023-02-15T06:25:57.392Z,28.70
2023-02-15T06:27:00.512Z,30.27
2023-02-15T06:28:03.601Z,29.02
2023-02-15T06:29:06.491Z,31.48
2023-02-15T06:30:09.754Z,31.73
2023-02-15T06:31:12.629Z,33.20
2023-02-15T06:32:14.492Z,34.92
2023-02-15T06:33:17.265Z,31.15
2023-02-15T06:34:19.118Z,34.25
2023-02-15T06:35:22.940Z,34.65
2023-02-15T06:36:25.788Z,34.40
2023-02-15T06:37:27.671Z,36.15
2023-02-15T06:38:30.386Z,36.17
2023-02-15T06:39:51.636Z,42.20
2023-02-15T06:40:53.877Z,31.20
2023-02-15T06:41:56.689Z,29.23
2023-02-15T06:42:59.823Z,28.90
2023-02-15T06:44:02.723Z,28.05
2023-02-15T06:45:05.374Z,30.42
2023-02-15T06:46:09.378Z,34.13
2023-02-15T06:47:11.673Z,40.28
2023-02-15T06:48:14.542Z,33.60
2023-02-15T06:49:17.350Z,32.33
2023-02-15T06:50:19.862Z,33.15
2023-02-15T06:51:22.632Z,38.70
2023-02-15T06:52:24.598Z,38.42
2023-02-15T06:53:27.456Z,31.83
2023-02-15T06:54:29.260Z,31.33
2023-02-15T06:55:32.146Z,34.17
2023-02-15T06:56:53.666Z,31.25
2023-02-15T06:57:56.532Z,30.08
2023-02-15T06:59:00.690Z,30.67
2023-02-15T07:00:05.731Z,33.65
2023-02-15T07:01:09.362Z,33.92
2023-02-15T07:02:13.535Z,36.75
2023-02-15T07:03:16.755Z,30.58
2023-02-15T07:04:19.702Z,32.53
2023-02-15T07:05:21.585Z,37.20
2023-02-15T07:06:24.369Z,35.60
2023-02-15T07:07:27.622Z,32.33
2023-02-15T07:08:29.800Z,30.67
2023-02-15T07:09:32.532Z,33.25
2023-02-15T07:10:34.638Z,33.80
2023-02-15T07:11:54.656Z,35.30
2023-02-15T07:12:57.480Z,37.58
2023-02-15T07:14:00.670Z,33.95
2023-02-15T07:15:07.692Z,32.53
2023-02-15T07:16:09.698Z,31.60
2023-02-15T07:17:32.868Z,32.22
2023-02-15T07:18:35.278Z,32.75
2023-02-15T07:19:37.511Z,29.40
2023-02-15T07:20:42.563Z,34.53
2023-02-15T07:21:46.386Z,34.10
2023-02-15T07:22:49.730Z,35.60
2023-02-15T07:23:52.963Z,34.38
2023-02-15T07:24:55.798Z,34.50
2023-02-15T07:25:59.192Z,33.35
2023-02-15T07:27:01.173Z,31.98
2023-02-15T07:28:05.867Z,33.40
2023-02-15T07:29:09.035Z,39.35
2023-02-15T07:30:13.746Z,37.70
2023-02-15T07:31:15.612Z,37.42
2023-02-15T07:32:18.473Z,37.00
2023-02-15T07:33:28.053Z,36.65
2023-02-15T07:34:31.129Z,36.97
2023-02-15T07:35:32.906Z,51.42
2023-02-15T07:36:36.459Z,42.63
2023-02-15T07:37:39.236Z,32.60
2023-02-15T07:38:43.434Z,32.08
2023-02-15T07:39:46.366Z,35.13
2023-02-15T07:40:48.427Z,35.53
2023-02-15T07:41:51.170Z,36.53
2023-02-15T07:42:55.886Z,31.10
2023-02-15T07:43:57.807Z,30.05
2023-02-15T07:45:01.982Z,35.92
2023-02-15T07:46:08.339Z,32.17
2023-02-15T07:47:10.203Z,32.20
2023-02-15T07:48:12.959Z,32.67
2023-02-15T07:49:16.647Z,31.85
2023-02-15T07:50:18.623Z,30.30
2023-02-15T07:51:21.409Z,37.35
2023-02-15T07:52:24.660Z,34.38
2023-02-15T07:53:27.462Z,42.85
2023-02-15T07:54:30.285Z,36.65
2023-02-15T07:55:33.186Z,39.42
2023-02-15T07:56:37.174Z,36.50
2023-02-15T07:57:42.251Z,35.92
2023-02-15T07:58:54.892Z,32.25
2023-02-15T07:59:57.655Z,33.70
2023-02-15T08:01:05.110Z,31.95
2023-02-15T08:02:10.535Z,36.70
2023-02-15T08:03:15.274Z,35.38
2023-02-15T08:04:19.058Z,36.42
2023-02-15T08:05:20.853Z,30.98
2023-02-15T08:06:24.683Z,33.42
2023-02-15T08:07:27.462Z,31.65
2023-02-15T08:08:32.641Z,30.45
2023-02-15T08:09:35.490Z,30.15
2023-02-15T08:10:55.607Z,39.90
2023-02-15T08:11:58.811Z,31.08
2023-02-15T08:13:00.566Z,30.50
2023-02-15T08:14:04.891Z,33.05
2023-02-15T08:15:08.241Z,31.70
2023-02-15T08:16:14.230Z,41.33
2023-02-15T08:17:17.150Z,31.83
2023-02-15T08:18:19.302Z,31.33
2023-02-15T08:19:24.153Z,33.20
2023-02-15T08:20:25.944Z,29.77
2023-02-15T08:21:30.058Z,33.03
2023-02-15T08:22:32.819Z,41.42
2023-02-15T08:23:34.553Z,34.38
2023-02-15T08:24:38.883Z,32.10
2023-02-15T08:25:40.770Z,35.35
2023-02-15T08:26:43.879Z,35.55
2023-02-15T08:27:47.145Z,30.85
2023-02-15T08:28:49.938Z,32.15
2023-02-15T08:29:52.836Z,29.67
2023-02-15T08:30:54.822Z,33.80
2023-02-15T08:32:03.050Z,31.02
2023-02-15T08:33:06.158Z,40.67
2023-02-15T08:34:10.051Z,34.00
2023-02-15T08:35:12.830Z,42.58
2023-02-15T08:36:18.086Z,32.40
2023-02-15T08:37:21.219Z,31.58
2023-02-15T08:38:23.078Z,29.88
2023-02-15T08:39:25.909Z,35.50
2023-02-15T08:40:28.125Z,68.55
2023-02-15T08:41:32.477Z,46.92
2023-02-15T08:42:34.288Z,33.75
2023-02-15T08:43:37.257Z,32.78
2023-02-15T08:44:40.013Z,30.15
2023-02-15T08:45:42.498Z,31.83
2023-02-15T08:47:05.294Z,34.45
2023-02-15T08:48:07.165Z,29.50
2023-02-15T08:49:10.679Z,36.28
2023-02-15T08:50:13.562Z,31.35
2023-02-15T08:51:16.589Z,30.33
2023-02-15T08:52:19.719Z,27.45
2023-02-15T08:53:22.589Z,31.38
2023-02-15T08:54:25.629Z,33.63
2023-02-15T08:55:27.771Z,45.63
2023-02-15T08:56:32.800Z,30.52
2023-02-15T08:57:35.688Z,33.10
2023-02-15T08:58:38.066Z,31.10
2023-02-15T08:59:40.995Z,28.70
2023-02-15T09:00:42.769Z,35.58
2023-02-15T09:01:46.462Z,30.10
2023-02-15T09:02:49.908Z,22.77
2023-02-15T09:03:54.606Z,27.65
2023-02-15T09:04:57.356Z,29.30
2023-02-15T09:06:00.173Z,35.97
2023-02-15T09:07:05.413Z,29.90
2023-02-15T09:08:07.173Z,25.67
2023-02-15T09:09:10.780Z,25.83
2023-02-15T09:10:12.628Z,23.58
2023-02-15T09:11:24.913Z,25.20
2023-02-15T09:12:27.755Z,23.55
2023-02-15T09:13:29.600Z,28.48
2023-02-15T09:14:32.769Z,30.00
2023-02-15T09:15:34.717Z,27.00
2023-02-15T09:16:39.326Z,35.88
2023-02-15T09:17:41.133Z,28.75
2023-02-15T09:18:45.595Z,25.85
2023-02-15T09:19:48.326Z,32.63
2023-02-15T09:20:50.187Z,23.90
2023-02-15T09:21:53.394Z,26.70
2023-02-15T09:22:58.085Z,25.83
2023-02-15T09:24:03.166Z,26.98
2023-02-15T09:25:05.638Z,24.88
2023-02-15T09:26:09.866Z,41.03
2023-02-15T09:27:13.093Z,32.38
2023-02-15T09:28:15.158Z,29.45
2023-02-15T09:29:19.258Z,29.05
2023-02-15T09:30:22.188Z,33.35
2023-02-15T09:31:26.406Z,27.45
2023-02-15T09:32:29.237Z,27.83
2023-02-15T09:33:31.050Z,29.65
2023-02-15T09:34:35.388Z,45.28
2023-02-15T09:35:37.145Z,34.78
2023-02-15T09:36:41.201Z,35.33
2023-02-15T09:37:43.004Z,26.35
2023-02-15T09:38:46.085Z,26.77
2023-02-15T09:39:49.252Z,23.10
2023-02-15T09:40:58.663Z,27.85
2023-02-15T09:42:35.019Z,29.73
2023-02-15T09:43:40.192Z,26.17
2023-02-15T09:45:00.856Z,29.80
2023-02-15T09:46:17.893Z,28.45
2023-02-15T09:47:32.423Z,25.48
2023-02-15T09:48:46.471Z,30.17
2023-02-15T09:49:56.987Z,28.23
2023-02-15T09:51:09.698Z,32.92
2023-02-15T09:52:22.338Z,28.65
2023-02-15T09:53:38.825Z,24.95
2023-02-15T09:54:50.471Z,30.95
2023-02-15T09:55:56.682Z,26.40
2023-02-15T09:57:01.681Z,27.13
2023-02-15T09:58:10.553Z,25.23
2023-02-15T09:59:18.832Z,25.50
2023-02-15T10:00:28.513Z,77.65
2023-02-15T10:01:55.548Z,24.83
2023-02-15T10:03:14.003Z,47.83
2023-02-15T10:04:28.066Z,25.75
2023-02-15T10:05:40.503Z,24.38
2023-02-15T10:06:46.237Z,25.00
2023-02-15T10:08:08.353Z,25.08
2023-02-15T10:09:18.562Z,28.27
2023-02-15T10:10:28.070Z,25.58
2023-02-15T10:11:40.657Z,23.15
2023-02-15T10:12:55.773Z,27.70
2023-02-15T10:14:08.400Z,33.40
2023-02-15T10:15:30.618Z,25.48
2023-02-15T10:16:41.425Z,27.00
2023-02-15T10:17:53.151Z,25.13
2023-02-15T10:18:58.288Z,25.23
2023-02-15T10:20:12.041Z,29.55
2023-02-15T10:21:24.807Z,25.25
2023-02-15T10:22:31.692Z,24.98
2023-02-15T10:23:49.581Z,26.88
2023-02-15T10:25:17.413Z,25.52
2023-02-15T10:26:23.711Z,28.10
2023-02-15T10:27:27.178Z,26.80
2023-02-15T10:28:33.917Z,26.27
2023-02-15T10:29:37.562Z,24.23
2023-02-15T10:30:45.840Z,32.10
2023-02-15T10:31:49.722Z,27.90
2023-02-15T10:33:01.494Z,27.25
2023-02-15T10:34:16.554Z,26.65
2023-02-15T10:35:24.444Z,27.60
2023-02-15T10:36:40.183Z,22.95
2023-02-15T10:37:54.802Z,24.63
2023-02-15T10:39:04.533Z,30.13
2023-02-15T10:40:12.939Z,21.80
2023-02-15T10:41:25.950Z,25.92
2023-02-15T10:42:32.927Z,19.92
2023-02-15T10:43:59.155Z,22.60
2023-02-15T10:45:15.607Z,28.88
2023-02-15T10:46:31.035Z,24.15
2023-02-15T10:47:58.586Z,21.08
2023-02-15T10:49:25.581Z,50.38
2023-02-15T10:50:43.063Z,42.85
2023-02-15T10:51:55.494Z,24.33
2023-02-15T10:53:09.878Z,26.23
2023-02-15T10:54:22.278Z,25.02
2023-02-15T10:55:35.926Z,21.08
2023-02-15T10:56:48.591Z,38.97
2023-02-15T10:57:54.542Z,24.00
2023-02-15T10:59:07.609Z,22.40
2023-02-15T11:00:13.952Z,26.20
2023-02-15T11:01:22.355Z,21.45
2023-02-15T11:02:31.886Z,23.77
2023-02-15T11:03:45.826Z,23.23
2023-02-15T11:04:55.197Z,29.88
2023-02-15T11:06:03.424Z,34.25
2023-02-15T11:07:10.030Z,25.75
2023-02-15T11:08:14.007Z,25.83
2023-02-15T11:09:19.165Z,24.40
2023-02-15T11:10:27.850Z,27.73
2023-02-15T11:11:33.499Z,29.05
2023-02-15T11:12:36.291Z,26.40
2023-02-15T11:13:40.685Z,25.55
2023-02-15T11:14:49.026Z,25.35
2023-02-15T11:15:53.656Z,32.20
2023-02-15T11:17:01.524Z,24.17
2023-02-15T11:18:10.454Z,26.52
2023-02-15T11:19:15.896Z,26.80
2023-02-15T11:20:21.909Z,24.77
2023-02-15T11:21:26.637Z,22.83
2023-02-15T11:22:31.178Z,25.92
2023-02-15T11:23:35.867Z,24.63
2023-02-15T11:24:43.522Z,25.85
2023-02-15T11:25:48.062Z,21.30
2023-02-15T11:26:57.640Z,22.58
2023-02-15T11:27:59.883Z,24.52
2023-02-15T11:29:08.890Z,51.25
2023-02-15T11:30:14.923Z,42.35
2023-02-15T11:31:19.963Z,30.27
2023-02-15T11:32:26.030Z,53.38
2023-02-15T11:33:31.776Z,41.53
2023-02-15T11:34:37.437Z,31.63
2023-02-15T11:35:47.432Z,26.52
2023-02-15T11:36:52.692Z,29.63
2023-02-15T11:38:01.098Z,27.60
2023-02-15T11:39:06.221Z,23.88
2023-02-15T11:40:19.000Z,48.15
2023-02-15T11:41:25.379Z,26.27
2023-02-15T11:42:28.665Z,30.63
2023-02-15T11:43:36.696Z,36.40
2023-02-15T11:44:40.689Z,35.13
2023-02-15T11:45:44.762Z,24.17
2023-02-15T11:46:48.010Z,33.05
2023-02-15T11:47:49.982Z,33.95
2023-02-15T11:48:52.732Z,24.67
2023-02-15T11:49:54.727Z,27.58
2023-02-15T11:50:58.389Z,23.38
2023-02-15T11:52:03.047Z,27.05
2023-02-15T11:53:11.550Z,24.60
2023-02-15T11:54:14.323Z,24.48
2023-02-15T11:55:22.256Z,26.55
2023-02-15T11:56:27.279Z,29.45
2023-02-15T11:57:34.719Z,21.50
2023-02-15T11:58:41.531Z,22.33
2023-02-15T11:59:48.060Z,26.55
2023-02-15T12:00:53.285Z,23.45
2023-02-15T12:01:56.041Z,22.80
2023-02-15T12:02:58.744Z,25.42
2023-02-15T12:04:04.169Z,25.88
2023-02-15T12:05:11.595Z,19.52
2023-02-15T12:06:19.662Z,21.15
2023-02-15T12:07:26.509Z,22.10
2023-02-15T12:08:37.083Z,23.98
2023-02-15T12:09:47.698Z,22.42
2023-02-15T12:10:58.897Z,27.90
2023-02-15T12:12:23.587Z,30.52
2023-02-15T12:13:25.396Z,28.08
2023-02-15T12:14:28.740Z,23.90
2023-02-15T12:15:31.839Z,31.63
2023-02-15T12:16:42.430Z,23.52
2023-02-15T12:17:52.125Z,23.00
2023-02-15T12:18:54.915Z,27.15
2023-02-15T12:19:59.508Z,21.80
2023-02-15T12:21:02.536Z,39.05
2023-02-15T12:22:09.281Z,27.73
2023-02-15T12:23:14.263Z,39.55
2023-02-15T12:24:20.586Z,34.38
2023-02-15T12:25:34.229Z,18.83
2023-02-15T12:26:37.480Z,20.73
2023-02-15T12:27:44.719Z,19.52
2023-02-15T12:28:53.031Z,24.08
2023-02-15T12:29:58.463Z,20.77
2023-02-15T12:31:02.656Z,41.08
2023-02-15T12:32:06.173Z,22.13
2023-02-15T12:33:17.427Z,18.92
2023-02-15T12:34:24.339Z,30.02
2023-02-15T12:35:29.885Z,33.20
2023-02-15T12:36:35.374Z,22.90
2023-02-15T12:37:37.269Z,18.80
2023-02-15T12:38:41.161Z,24.90
2023-02-15T12:39:54.176Z,19.42
2023-02-15T12:41:02.346Z,25.40
2023-02-15T12:42:10.566Z,18.63
2023-02-15T12:43:27.158Z,19.98
2023-02-15T12:44:30.869Z,15.63
2023-02-15T12:45:35.079Z,19.55
2023-02-15T12:46:38.440Z,20.67
2023-02-15T12:47:41.350Z,21.98
2023-02-15T12:48:44.108Z,16.58
2023-02-15T12:50:12.300Z,18.08
2023-02-15T12:51:17.158Z,19.90
2023-02-15T12:52:25.981Z,21.27
2023-02-15T12:53:34.138Z,29.15
2023-02-15T12:54:41.044Z,25.70
2023-02-15T12:55:54.386Z,21.60
2023-02-15T12:56:58.200Z,21.25
2023-02-15T12:58:14.875Z,16.10
2023-02-15T12:59:23.155Z,16.55
2023-02-15T13:00:32.835Z,16.20
2023-02-15T13:01:34.732Z,17.15
2023-02-15T13:02:43.701Z,14.73
2023-02-15T13:03:58.363Z,14.88
2023-02-15T13:05:14.667Z,38.50
2023-02-15T13:06:19.460Z,15.25
2023-02-15T13:07:22.634Z,16.60
2023-02-15T13:08:30.314Z,20.88
2023-02-15T13:09:40.512Z,17.25
2023-02-15T13:10:45.230Z,13.95
2023-02-15T13:11:48.546Z,12.85
2023-02-15T13:12:54.927Z,28.52
2023-02-15T13:14:00.491Z,15.45
2023-02-15T13:15:05.542Z,16.25
2023-02-15T13:16:12.158Z,13.02
2023-02-15T13:17:16.395Z,19.65
2023-02-15T13:18:22.078Z,12.95
2023-02-15T13:19:31.292Z,12.77
2023-02-15T13:20:37.302Z,13.52
2023-02-15T13:21:43.181Z,23.95
2023-02-15T13:22:48.084Z,13.80
2023-02-15T13:23:53.724Z,26.00
2023-02-15T13:24:58.061Z,15.25
2023-02-15T13:26:02.078Z,13.35
2023-02-15T13:27:14.917Z,46.88
2023-02-15T13:28:20.224Z,67.63
2023-02-15T13:29:24.383Z,21.33
2023-02-15T13:30:30.038Z,19.13
2023-02-15T13:31:33.622Z,16.52
2023-02-15T13:32:38.864Z,19.02
2023-02-15T13:33:46.337Z,29.33
2023-02-15T13:34:48.378Z,14.77
2023-02-15T13:35:58.716Z,13.68
2023-02-15T13:37:07.107Z,16.73
2023-02-15T13:38:20.286Z,23.73
2023-02-15T13:39:45.255Z,17.77
2023-02-15T13:40:52.747Z,16.13
2023-02-15T13:42:01.719Z,13.63
2023-02-15T13:43:12.899Z,12.52
2023-02-15T13:44:21.883Z,18.17
2023-02-15T13:45:35.736Z,38.28
2023-02-15T13:46:57.818Z,17.48
2023-02-15T13:48:03.061Z,14.90
2023-02-15T13:49:17.578Z,13.00
2023-02-15T13:50:34.065Z,30.50
2023-02-15T13:51:43.289Z,21.85
2023-02-15T13:52:50.654Z,23.25
2023-02-15T13:54:10.686Z,13.77
2023-02-15T13:55:28.804Z,17.02
2023-02-15T13:56:38.095Z,13.07
2023-02-15T13:57:55.693Z,13.45
2023-02-15T13:59:39.638Z,15.18
2023-02-15T14:00:48.091Z,17.95
2023-02-15T14:01:58.156Z,12.32
2023-02-15T14:03:22.410Z,15.68
2023-02-15T14:04:49.610Z,13.35
2023-02-15T14:06:02.505Z,15.48
2023-02-15T14:07:27.554Z,13.43
2023-02-15T14:08:43.232Z,11.23
2023-02-15T14:09:53.598Z,11.18
2023-02-15T14:10:59.677Z,11.07
2023-02-15T14:12:17.674Z,13.68
2023-02-15T14:13:42.424Z,12.43
2023-02-15T14:15:00.816Z,13.88
2023-02-15T14:16:06.412Z,14.27